Time;durP1;ratioP1;P1;durP2;ratioP2;P2;SDS_P1;SDS_P2;PMS_P1;PMS_P2;Temp;Humidity;BMP_temperature;BMP_pressure;BME280_temperature;BME280_humidity;BME280_pressure;Samples;Min_cycle;Max_cycle;Signal;HPM_P1;HPM_P2
2021/01/02 00:01:18;;;;;;;12.82;7.47;;;4.50;99.90;;;;;;5056778;28;20064;-61
2021/01/02 00:03:50;;;;;;;18.42;7.95;;;4.50;99.90;;;;;;5058049;28;20022;-60
2021/01/02 00:06:27;;;;;;;17.60;7.65;;;4.50;99.90;;;;;;5056916;28;20024;-59
2021/01/02 00:09:03;;;;;;;19.48;7.53;;;4.50;99.90;;;;;;5056039;28;20043;-60
2021/01/02 00:11:59;;;;;;;14.57;7.68;;;4.40;99.90;;;;;;5057501;28;20601;-60
2021/01/02 00:14:53;;;;;;;22.95;7.70;;;4.40;99.90;;;;;;5056514;28;20056;-60
2021/01/02 00:17:56;;;;;;;10.93;6.80;;;4.40;99.90;;;;;;5056587;28;20115;-61
2021/01/02 00:21:02;;;;;;;15.35;7.47;;;4.40;99.90;;;;;;5054198;28;20064;-59
2021/01/02 00:24:05;;;;;;;18.38;7.50;;;4.40;99.90;;;;;;5054541;28;20068;-61
2021/01/02 00:26:43;;;;;;;15.30;7.65;;;4.40;99.90;;;;;;5054701;28;20032;-61
2021/01/02 00:29:22;;;;;;;15.75;8.27;;;4.40;99.90;;;;;;5056232;28;20072;-60
2021/01/02 00:32:08;;;;;;;15.88;7.28;;;4.40;99.90;;;;;;5057114;28;20021;-61
2021/01/02 00:35:03;;;;;;;13.77;7.43;;;4.40;99.90;;;;;;5057025;28;20048;-60
2021/01/02 00:37:37;;;;;;;15.40;7.70;;;4.40;99.90;;;;;;5054289;28;20104;-61
2021/01/02 00:40:10;;;;;;;13.88;7.57;;;4.40;99.90;;;;;;5051984;28;20037;-61
2021/01/02 00:42:38;;;;;;;14.32;7.82;;;4.40;99.90;;;;;;5069325;28;20020;-60
2021/01/02 00:45:06;;;;;;;12.38;7.45;;;4.50;99.90;;;;;;5068295;28;20102;-61
2021/01/02 00:47:34;;;;;;;16.25;8.32;;;4.50;99.90;;;;;;5052129;28;20597;-61
2021/01/02 00:50:01;;;;;;;17.85;8.43;;;4.40;99.90;;;;;;5054734;28;20143;-60
2021/01/02 00:52:40;;;;;;;13.32;7.38;;;4.40;99.90;;;;;;5063995;28;20029;-60
2021/01/02 00:55:11;;;;;;;14.45;7.57;;;4.40;99.90;;;;;;5055504;28;20076;-60
2021/01/02 00:57:37;;;;;;;17.60;7.45;;;4.40;99.90;;;;;;5051841;28;20315;-59
2021/01/02 01:00:08;;;;;;;30.13;8.73;;;4.40;99.90;;;;;;5054186;28;20051;-60
2021/01/02 01:03:06;;;;;;;13.27;7.57;;;4.30;99.90;;;;;;5052332;28;20025;-60
2021/01/02 01:05:39;;;;;;;13.60;7.00;;;4.40;99.90;;;;;;5065231;28;20039;-59
2021/01/02 01:08:06;;;;;;;15.13;7.57;;;4.30;99.90;;;;;;5071546;28;20024;-60
2021/01/02 01:10:34;;;;;;;17.50;6.78;;;4.30;99.90;;;;;;5053483;28;20044;-61
2021/01/02 01:13:04;;;;;;;12.95;7.00;;;4.30;99.90;;;;;;5055937;28;20052;-59
2021/01/02 01:15:30;;;;;;;11.38;6.63;;;4.30;99.90;;;;;;5064344;28;20029;-59
2021/01/02 01:18:17;;;;;;;15.30;6.63;;;4.30;99.90;;;;;;5075601;28;20158;-60
2021/01/02 01:21:01;;;;;;;11.35;7.25;;;4.40;99.90;;;;;;5061060;28;20051;-61
2021/01/02 01:23:36;;;;;;;14.18;7.18;;;4.40;99.90;;;;;;5055414;28;20016;-61
2021/01/02 01:26:33;;;;;;;15.57;6.60;;;4.40;99.90;;;;;;5066960;28;20355;-61
2021/01/02 01:29:01;;;;;;;14.30;7.03;;;4.40;99.90;;;;;;5067235;28;20047;-60
2021/01/02 01:31:42;;;;;;;14.10;6.88;;;4.40;99.90;;;;;;5055389;28;20051;-61
2021/01/02 01:34:10;;;;;;;15.35;6.63;;;4.30;99.90;;;;;;5063867;28;20119;-58
2021/01/02 01:36:41;;;;;;;14.07;7.63;;;4.30;99.90;;;;;;5054954;28;20374;-58
2021/01/02 01:39:07;;;;;;;13.25;7.03;;;4.30;99.90;;;;;;5062970;28;20029;-57
2021/01/02 01:41:42;;;;;;;13.20;7.15;;;4.30;99.90;;;;;;5062560;28;20025;-58
2021/01/02 01:44:12;;;;;;;16.73;7.18;;;4.30;99.90;;;;;;5055041;28;20023;-58
2021/01/02 01:46:50;;;;;;;17.00;7.13;;;4.30;99.90;;;;;;5059359;28;20017;-60
2021/01/02 01:49:42;;;;;;;20.85;7.30;;;4.30;99.90;;;;;;5065305;28;20033;-62
2021/01/02 01:52:25;;;;;;;13.80;7.20;;;4.20;99.90;;;;;;5062213;28;20104;-59
2021/01/02 01:55:08;;;;;;;17.27;7.28;;;4.20;99.90;;;;;;5061451;28;20037;-58
2021/01/02 01:57:41;;;;;;;18.00;6.90;;;4.20;99.90;;;;;;5058718;28;20381;-58
2021/01/02 02:00:09;;;;;;;14.38;7.20;;;4.20;99.90;;;;;;5072391;28;20089;-58
2021/01/02 02:02:47;;;;;;;18.95;6.97;;;4.30;99.90;;;;;;5072562;28;20028;-58
2021/01/02 02:05:18;;;;;;;13.25;6.97;;;4.30;99.90;;;;;;5064384;28;20036;-58
2021/01/02 02:08:03;;;;;;;12.98;6.70;;;4.20;99.90;;;;;;5060879;28;20466;-62
2021/01/02 02:10:30;;;;;;;16.00;7.18;;;4.20;99.90;;;;;;5061690;28;20044;-62
2021/01/02 02:13:19;;;;;;;15.57;7.43;;;4.20;99.90;;;;;;5073790;28;20033;-58
2021/01/02 02:15:56;;;;;;;16.77;7.28;;;4.20;99.90;;;;;;5056202;28;20045;-59
2021/01/02 02:18:25;;;;;;;11.57;6.72;;;4.20;99.90;;;;;;5061842;28;20082;-58
2021/01/02 02:20:53;;;;;;;12.60;6.53;;;4.20;99.90;;;;;;5063574;28;20316;-58
2021/01/02 02:23:26;;;;;;;15.10;6.53;;;4.20;99.90;;;;;;5059815;28;20082;-59
2021/01/02 02:26:05;;;;;;;17.67;7.00;;;4.20;99.90;;;;;;5067285;28;20127;-61
2021/01/02 02:29:07;;;;;;;16.25;7.50;;;4.20;99.90;;;;;;5056402;28;20506;-59
2021/01/02 02:31:33;;;;;;;12.10;6.70;;;4.20;99.90;;;;;;5054699;28;20104;-59
2021/01/02 02:34:01;;;;;;;24.05;8.27;;;4.10;99.90;;;;;;5057480;28;20032;-60
2021/01/02 02:36:31;;;;;;;14.13;7.10;;;4.10;99.90;;;;;;5056682;28;20036;-57
2021/01/02 02:39:04;;;;;;;16.15;6.75;;;4.10;99.90;;;;;;5056333;28;20395;-62
2021/01/02 02:41:35;;;;;;;15.90;7.40;;;4.20;99.90;;;;;;5072054;28;20068;-57
2021/01/02 02:44:03;;;;;;;11.73;7.13;;;4.10;99.90;;;;;;5069965;28;20095;-58
2021/01/02 02:46:34;;;;;;;16.45;6.65;;;4.10;99.90;;;;;;5056801;28;20070;-59
2021/01/02 02:49:05;;;;;;;10.95;6.75;;;4.10;99.90;;;;;;5062177;28;20369;-57
2021/01/02 02:51:38;;;;;;;11.00;6.45;;;4.10;99.90;;;;;;5067614;28;20384;-62
2021/01/02 02:54:04;;;;;;;13.82;6.70;;;4.10;99.90;;;;;;5069762;28;20035;-58
2021/01/02 02:56:30;;;;;;;15.68;7.32;;;4.10;99.90;;;;;;5072205;28;20757;-59
2021/01/02 02:58:56;;;;;;;14.30;6.88;;;4.00;99.90;;;;;;5064384;28;20017;-58
2021/01/02 03:01:22;;;;;;;15.73;7.32;;;4.00;99.90;;;;;;5057638;28;20108;-59
2021/01/02 03:03:48;;;;;;;15.35;6.93;;;4.00;99.90;;;;;;5052352;28;20112;-59
2021/01/02 03:06:14;;;;;;;13.40;6.65;;;4.00;99.90;;;;;;5065478;28;20032;-58
2021/01/02 03:08:40;;;;;;;12.63;6.30;;;4.00;99.90;;;;;;5056670;28;20032;-59
2021/01/02 03:11:07;;;;;;;12.18;7.13;;;4.00;99.90;;;;;;5068726;28;20036;-59
2021/01/02 03:13:40;;;;;;;17.13;6.97;;;3.90;99.90;;;;;;5060237;28;20021;-59
2021/01/02 03:16:06;;;;;;;15.38;6.80;;;3.90;99.90;;;;;;5056128;28;20116;-61
2021/01/02 03:18:32;;;;;;;12.57;6.45;;;3.90;99.90;;;;;;5054597;28;20100;-60
2021/01/02 03:20:57;;;;;;;17.63;6.70;;;3.90;99.90;;;;;;5054788;28;20474;-61
2021/01/02 03:23:23;;;;;;;9.73;6.30;;;3.90;99.90;;;;;;5056203;28;20040;-57
2021/01/02 03:25:49;;;;;;;11.70;6.15;;;3.90;99.90;;;;;;5064530;28;20373;-59
2021/01/02 03:28:14;;;;;;;16.23;6.35;;;3.90;99.90;;;;;;5066893;28;20048;-60
2021/01/02 03:30:40;;;;;;;13.45;5.85;;;3.80;99.90;;;;;;5059225;28;20028;-59
2021/01/02 03:33:06;;;;;;;13.35;5.90;;;3.80;99.90;;;;;;5068248;28;20020;-59
2021/01/02 03:35:32;;;;;;;12.48;5.47;;;3.80;99.90;;;;;;5055877;28;20056;-59
2021/01/02 03:37:58;;;;;;;14.70;5.82;;;3.90;99.90;;;;;;5063245;28;20469;-60
2021/01/02 03:40:23;;;;;;;8.85;5.38;;;3.90;99.90;;;;;;5057507;28;20032;-59
2021/01/02 03:42:49;;;;;;;10.23;5.18;;;3.90;99.90;;;;;;5053272;28;20035;-59
2021/01/02 03:45:16;;;;;;;14.95;5.40;;;3.80;99.90;;;;;;5060840;28;20025;-57
2021/01/02 03:47:48;;;;;;;9.73;5.20;;;3.90;99.90;;;;;;5071685;28;20043;-59
2021/01/02 03:50:15;;;;;;;13.15;5.43;;;3.90;99.90;;;;;;5053005;28;20029;-58
2021/01/02 03:52:42;;;;;;;10.07;5.15;;;3.90;99.90;;;;;;5065676;28;20025;-60
2021/01/02 03:55:09;;;;;;;9.63;5.00;;;3.90;99.90;;;;;;5063615;28;20421;-62
2021/01/02 03:57:35;;;;;;;12.30;5.07;;;3.90;99.90;;;;;;5059040;28;20051;-59
2021/01/02 04:00:03;;;;;;;14.45;4.32;;;3.90;99.90;;;;;;5070956;28;20039;-59
2021/01/02 04:02:29;;;;;;;11.20;4.80;;;3.90;99.90;;;;;;5070629;28;20046;-60
2021/01/02 04:04:54;;;;;;;8.13;4.35;;;3.90;99.90;;;;;;5067748;28;20024;-58
2021/01/02 04:07:20;;;;;;;10.10;4.53;;;3.90;99.90;;;;;;5064015;28;20075;-58
2021/01/02 04:09:46;;;;;;;7.10;4.80;;;3.80;99.90;;;;;;5057481;28;20035;-58
2021/01/02 04:12:12;;;;;;;9.32;4.00;;;3.80;99.90;;;;;;5066109;28;20040;-59
2021/01/02 04:14:38;;;;;;;9.60;4.38;;;3.80;99.90;;;;;;5069222;28;20040;-59
2021/01/02 04:17:04;;;;;;;6.80;4.10;;;3.80;99.90;;;;;;5069255;28;20393;-58
2021/01/02 04:19:32;;;;;;;8.88;3.88;;;3.80;99.90;;;;;;5067410;28;20510;-58
2021/01/02 04:21:58;;;;;;;6.47;3.75;;;3.80;99.90;;;;;;5068142;28;20032;-60
2021/01/02 04:24:24;;;;;;;13.15;4.00;;;3.80;99.90;;;;;;5052532;28;20039;-58
2021/01/02 04:26:50;;;;;;;8.68;4.03;;;3.80;99.90;;;;;;5067748;28;20143;-58
2021/01/02 04:29:16;;;;;;;10.02;4.20;;;3.80;99.90;;;;;;5070054;28;20082;-58
2021/01/02 04:31:41;;;;;;;8.27;3.83;;;3.70;99.90;;;;;;5061729;28;20017;-59
2021/01/02 04:34:09;;;;;;;9.63;3.95;;;3.70;99.90;;;;;;5053958;28;20386;-58
2021/01/02 04:36:36;;;;;;;12.55;4.40;;;3.80;99.90;;;;;;5058924;28;20082;-58
2021/01/02 04:39:04;;;;;;;5.85;3.58;;;3.70;99.90;;;;;;5067350;28;20081;-58
2021/01/02 04:41:30;;;;;;;6.50;3.35;;;3.70;99.90;;;;;;5065755;28;20029;-59
2021/01/02 04:43:57;;;;;;;7.72;3.97;;;3.80;99.90;;;;;;5059317;28;20356;-58
2021/01/02 04:46:23;;;;;;;8.93;3.88;;;3.80;99.90;;;;;;5051478;28;20406;-59
2021/01/02 04:48:49;;;;;;;9.68;3.80;;;3.80;99.90;;;;;;5064190;28;20033;-59
2021/01/02 04:51:16;;;;;;;5.43;3.17;;;3.80;99.90;;;;;;5069723;28;20034;-59
2021/01/02 04:53:43;;;;;;;8.48;3.80;;;3.80;99.90;;;;;;5055741;28;20028;-59
2021/01/02 04:56:09;;;;;;;9.65;3.60;;;3.80;99.90;;;;;;5062567;28;20094;-58
2021/01/02 04:58:37;;;;;;;6.35;3.20;;;3.70;99.90;;;;;;5062616;28;20025;-58
2021/01/02 05:01:04;;;;;;;10.63;4.00;;;3.70;99.90;;;;;;5060064;28;20020;-59
2021/01/02 05:03:34;;;;;;;13.73;4.10;;;3.70;99.90;;;;;;5052775;28;20029;-59
2021/01/02 05:06:00;;;;;;;7.15;3.50;;;3.70;99.90;;;;;;5050799;28;20041;-61
2021/01/02 05:08:26;;;;;;;8.70;3.20;;;3.70;99.90;;;;;;5068251;28;20024;-59
2021/01/02 05:11:01;;;;;;;16.52;3.80;;;3.70;99.90;;;;;;5061043;28;20532;-60
2021/01/02 05:13:32;;;;;;;6.95;3.28;;;3.70;99.90;;;;;;5063411;28;20033;-59
2021/01/02 05:16:27;;;;;;;7.78;3.83;;;3.70;99.90;;;;;;5050886;28;20036;-57
2021/01/02 05:18:57;;;;;;;5.75;3.25;;;3.70;99.90;;;;;;5053101;28;20063;-60
2021/01/02 05:21:27;;;;;;;8.25;3.63;;;3.70;99.90;;;;;;5064834;28;20024;-58
2021/01/02 05:24:13;;;;;;;7.43;3.33;;;3.60;99.90;;;;;;5070015;28;20051;-62
2021/01/02 05:26:44;;;;;;;5.88;3.10;;;3.60;99.90;;;;;;5062352;28;20078;-58
2021/01/02 05:29:21;;;;;;;10.95;3.70;;;3.60;99.90;;;;;;5066098;28;20032;-58
2021/01/02 05:31:52;;;;;;;9.98;3.90;;;3.70;99.90;;;;;;5060327;28;20024;-58
2021/01/02 05:34:23;;;;;;;6.57;3.60;;;3.60;99.90;;;;;;5061429;28;20108;-58
2021/01/02 05:37:07;;;;;;;8.18;4.18;;;3.60;99.90;;;;;;5058357;28;20021;-58
2021/01/02 05:39:38;;;;;;;10.55;3.50;;;3.70;99.90;;;;;;5053598;28;20017;-60
2021/01/02 05:42:05;;;;;;;8.82;4.13;;;3.70;99.90;;;;;;5060199;28;20100;-59
2021/01/02 05:44:35;;;;;;;6.63;3.63;;;3.60;99.90;;;;;;5051632;28;20036;-57
2021/01/02 05:47:02;;;;;;;6.35;3.17;;;3.60;99.90;;;;;;5053681;28;20029;-59
2021/01/02 05:49:31;;;;;;;6.72;3.58;;;3.60;99.90;;;;;;5071487;28;20021;-61
2021/01/02 05:51:58;;;;;;;6.43;3.38;;;3.60;99.90;;;;;;5063175;28;20036;-58
2021/01/02 05:54:29;;;;;;;8.02;3.58;;;3.60;99.90;;;;;;5060161;28;20036;-58
2021/01/02 05:56:56;;;;;;;8.20;3.03;;;3.60;99.90;;;;;;5058135;28;20075;-59
2021/01/02 05:59:30;;;;;;;8.63;3.47;;;3.60;99.90;;;;;;5061404;28;20409;-61
2021/01/02 06:01:56;;;;;;;5.85;2.95;;;3.60;99.90;;;;;;5057848;28;20100;-59
2021/01/02 06:04:22;;;;;;;4.15;2.72;;;3.50;99.90;;;;;;5055718;28;20113;-58
2021/01/02 06:07:06;;;;;;;6.53;2.72;;;3.60;99.90;;;;;;5056048;28;20033;-59
2021/01/02 06:09:33;;;;;;;7.97;2.85;;;3.60;99.90;;;;;;5065714;28;20016;-58
2021/01/02 06:12:07;;;;;;;6.72;2.70;;;3.50;99.90;;;;;;5062135;28;20119;-60
2021/01/02 06:14:34;;;;;;;5.95;2.40;;;3.50;99.90;;;;;;5057298;28;20486;-59
2021/01/02 06:17:06;;;;;;;5.60;2.35;;;3.50;99.90;;;;;;5066185;28;20455;-59
2021/01/02 06:19:33;;;;;;;5.22;2.42;;;3.40;99.90;;;;;;5060210;28;20416;-59
2021/01/02 06:21:59;;;;;;;7.47;2.22;;;3.40;99.90;;;;;;5053705;28;20056;-59
2021/01/02 06:24:25;;;;;;;5.55;2.15;;;3.40;99.90;;;;;;5066027;28;20024;-59
2021/01/02 06:26:52;;;;;;;6.75;2.20;;;3.50;99.90;;;;;;5061974;28;20040;-58
2021/01/02 06:29:18;;;;;;;7.35;2.17;;;3.40;99.90;;;;;;5062229;28;20036;-59
2021/01/02 06:31:44;;;;;;;5.95;2.45;;;3.40;99.90;;;;;;5070379;28;20025;-58
2021/01/02 06:34:11;;;;;;;9.23;2.40;;;3.40;99.90;;;;;;5055823;28;20040;-60
2021/01/02 06:36:39;;;;;;;5.50;2.10;;;3.50;99.90;;;;;;5068281;28;20415;-58
2021/01/02 06:39:18;;;;;;;6.25;2.05;;;3.60;99.90;;;;;;5065475;28;20043;-59
2021/01/02 06:41:44;;;;;;;3.83;1.90;;;3.50;99.90;;;;;;5057412;28;20116;-61
2021/01/02 06:44:11;;;;;;;3.10;1.70;;;3.50;99.90;;;;;;5053853;28;20033;-60
2021/01/02 06:46:37;;;;;;;5.30;1.73;;;3.50;99.90;;;;;;5067386;28;20489;-60
2021/01/02 06:49:31;;;;;;;5.82;2.00;;;3.60;99.90;;;;;;5071477;28;20020;-58
2021/01/02 06:51:57;;;;;;;5.82;2.30;;;3.50;99.90;;;;;;5054740;28;20374;-60
2021/01/02 06:54:23;;;;;;;6.68;2.33;;;3.50;99.90;;;;;;5057020;28;20025;-60
2021/01/02 06:57:03;;;;;;;8.57;2.30;;;3.50;99.90;;;;;;5053180;28;20119;-60
2021/01/02 06:59:30;;;;;;;5.03;2.30;;;3.50;99.90;;;;;;5072337;28;20021;-58
2021/01/02 07:01:56;;;;;;;4.60;2.42;;;3.50;99.90;;;;;;5068746;28;20035;-58
2021/01/02 07:04:42;;;;;;;6.10;2.55;;;3.50;99.90;;;;;;5061246;28;20039;-57
2021/01/02 07:07:08;;;;;;;3.22;2.00;;;3.50;99.90;;;;;;5062353;28;20062;-59
2021/01/02 07:09:34;;;;;;;7.57;2.50;;;3.50;99.90;;;;;;5052396;28;20053;-57
2021/01/02 07:12:07;;;;;;;3.75;2.05;;;3.50;99.90;;;;;;5061633;28;20119;-58
2021/01/02 07:14:32;;;;;;;5.88;2.35;;;3.50;99.90;;;;;;5072095;28;20473;-59
2021/01/02 07:17:12;;;;;;;12.57;2.38;;;3.50;99.90;;;;;;5071676;28;20025;-58
2021/01/02 07:19:39;;;;;;;10.90;2.50;;;3.50;99.90;;;;;;5058107;28;20032;-60
2021/01/02 07:22:24;;;;;;;7.53;2.20;;;3.50;99.90;;;;;;5062302;28;20021;-58
2021/01/02 07:25:02;;;;;;;8.23;2.45;;;3.50;99.90;;;;;;5053849;28;20035;-57
2021/01/02 07:27:39;;;;;;;6.30;2.25;;;3.40;99.90;;;;;;5052463;28;20021;-59
2021/01/02 07:30:10;;;;;;;6.55;2.30;;;3.40;99.90;;;;;;5068768;28;20051;-59
2021/01/02 07:32:42;;;;;;;4.22;1.80;;;3.50;99.90;;;;;;5070496;28;20032;-60
2021/01/02 07:35:09;;;;;;;4.50;2.03;;;3.50;99.90;;;;;;5052844;28;20064;-59
2021/01/02 07:37:38;;;;;;;7.70;1.90;;;3.50;99.90;;;;;;5063726;28;20032;-57
2021/01/02 07:40:09;;;;;;;5.85;2.15;;;3.50;99.90;;;;;;5056793;28;20402;-59
2021/01/02 07:42:40;;;;;;;4.85;1.90;;;3.40;99.90;;;;;;5065307;28;20072;-60
2021/01/02 07:45:15;;;;;;;7.85;2.17;;;3.40;99.90;;;;;;5069304;28;20023;-59
2021/01/02 07:47:50;;;;;;;3.75;1.92;;;3.50;99.90;;;;;;5053738;28;20164;-58
2021/01/02 07:50:18;;;;;;;9.00;1.73;;;3.50;99.90;;;;;;5059929;28;20063;-60
2021/01/02 07:52:51;;;;;;;6.38;2.17;;;3.40;99.90;;;;;;5056583;28;20048;-60
2021/01/02 07:55:20;;;;;;;7.05;1.98;;;3.40;99.90;;;;;;5062110;28;20442;-58
2021/01/02 07:57:46;;;;;;;4.20;1.75;;;3.50;99.90;;;;;;5056483;28;20439;-59
2021/01/02 08:00:13;;;;;;;2.55;1.40;;;3.40;99.90;;;;;;5054257;28;20474;-58
2021/01/02 08:02:42;;;;;;;3.78;1.60;;;3.40;99.90;;;;;;5068711;28;20029;-59
2021/01/02 08:05:16;;;;;;;4.50;1.73;;;3.40;99.90;;;;;;5055265;28;20033;-60
2021/01/02 08:07:52;;;;;;;4.22;1.63;;;3.40;99.90;;;;;;5058533;28;20074;-59
2021/01/02 08:10:17;;;;;;;5.88;1.90;;;3.40;99.90;;;;;;5058538;28;20517;-60
2021/01/02 08:12:47;;;;;;;3.17;1.45;;;3.40;99.90;;;;;;5065327;28;20024;-58
2021/01/02 08:15:17;;;;;;;7.47;1.55;;;3.40;99.90;;;;;;5061166;28;20032;-59
2021/01/02 08:17:44;;;;;;;4.18;1.63;;;3.40;99.90;;;;;;5071222;28;20044;-60
2021/01/02 08:20:10;;;;;;;7.72;1.60;;;3.40;99.90;;;;;;5064138;28;20032;-59
2021/01/02 08:22:37;;;;;;;4.82;2.03;;;3.40;99.90;;;;;;5052535;28;20029;-59
2021/01/02 08:25:18;;;;;;;4.40;1.45;;;3.50;99.90;;;;;;5063522;28;20515;-58
2021/01/02 08:27:47;;;;;;;5.63;1.40;;;3.40;99.90;;;;;;5059863;28;20029;-59
2021/01/02 08:30:14;;;;;;;6.72;1.40;;;3.40;99.90;;;;;;5054132;28;21604;-59
2021/01/02 08:32:51;;;;;;;9.02;1.90;;;3.50;99.90;;;;;;5051981;28;20417;-58
2021/01/02 08:35:29;;;;;;;6.22;1.30;;;3.50;99.90;;;;;;5053257;28;20033;-59
2021/01/02 08:38:06;;;;;;;3.13;1.40;;;3.50;99.90;;;;;;5051763;28;20029;-59
2021/01/02 08:40:37;;;;;;;3.80;1.40;;;3.50;99.90;;;;;;5065885;28;20021;-59
2021/01/02 08:43:03;;;;;;;3.58;1.90;;;3.50;99.90;;;;;;5055319;28;20048;-63
2021/01/02 08:45:33;;;;;;;5.07;1.42;;;3.50;99.90;;;;;;5057034;28;20053;-59
2021/01/02 08:48:05;;;;;;;4.70;1.52;;;3.50;99.90;;;;;;5057565;28;20024;-58
2021/01/02 08:50:31;;;;;;;3.90;1.30;;;3.50;99.90;;;;;;5059138;28;20083;-60
2021/01/02 08:52:57;;;;;;;5.82;1.30;;;3.50;99.90;;;;;;5065444;28;20024;-60
2021/01/02 08:55:23;;;;;;;5.85;1.20;;;3.50;99.90;;;;;;5060752;28;20106;-59
2021/01/02 08:57:50;;;;;;;4.15;1.10;;;3.50;99.90;;;;;;5056279;28;20340;-60
2021/01/02 09:00:22;;;;;;;6.90;1.17;;;3.50;99.90;;;;;;5064321;28;20024;-59
2021/01/02 09:02:52;;;;;;;10.05;1.58;;;3.60;99.90;;;;;;5056351;28;20025;-59
2021/01/02 09:05:25;;;;;;;4.22;1.33;;;3.50;99.90;;;;;;5058434;28;20071;-58
2021/01/02 09:08:00;;;;;;;5.90;1.77;;;3.50;99.90;;;;;;5057706;28;20152;-60
2021/01/02 09:10:37;;;;;;;2.72;1.27;;;3.60;99.90;;;;;;5062949;28;20049;-59
2021/01/02 09:13:04;;;;;;;8.80;1.27;;;3.60;99.90;;;;;;5056480;28;20036;-60
2021/01/02 09:15:46;;;;;;;4.15;1.33;;;3.50;99.90;;;;;;5052791;28;20094;-58
2021/01/02 09:18:16;;;;;;;4.00;1.50;;;3.50;99.90;;;;;;5055304;28;20087;-59
2021/01/02 09:20:42;;;;;;;2.78;1.27;;;3.60;99.90;;;;;;5054895;28;20017;-58
2021/01/02 09:23:08;;;;;;;2.90;1.30;;;3.60;99.90;;;;;;5055579;28;20036;-59
2021/01/02 09:25:35;;;;;;;6.28;1.55;;;3.60;99.90;;;;;;5059237;28;20017;-58
2021/01/02 09:28:17;;;;;;;3.85;1.00;;;3.60;99.90;;;;;;5066568;28;20095;-58
2021/01/02 09:30:44;;;;;;;3.42;1.10;;;3.60;99.90;;;;;;5054742;28;20035;-58
2021/01/02 09:33:11;;;;;;;6.45;2.78;;;3.70;99.90;;;;;;5058009;28;20030;-60
2021/01/02 09:35:37;;;;;;;3.72;1.25;;;3.70;99.90;;;;;;5063697;28;20107;-59
2021/01/02 09:38:04;;;;;;;3.40;1.30;;;3.60;99.90;;;;;;5059479;28;20024;-60
2021/01/02 09:40:31;;;;;;;3.55;1.50;;;3.70;99.90;;;;;;5073550;28;20094;-60
2021/01/02 09:42:57;;;;;;;7.15;2.20;;;3.60;99.90;;;;;;5059298;28;20036;-59
2021/01/02 09:45:23;;;;;;;5.97;1.70;;;3.70;99.90;;;;;;5068818;28;20021;-59
2021/01/02 09:47:48;;;;;;;4.18;1.10;;;3.60;99.90;;;;;;5056947;28;20370;-60
2021/01/02 09:50:14;;;;;;;9.32;1.75;;;3.70;99.90;;;;;;5059040;28;20040;-59
2021/01/02 09:52:41;;;;;;;5.95;1.65;;;3.80;99.90;;;;;;5062474;28;20032;-59
2021/01/02 09:55:07;;;;;;;4.75;1.20;;;3.80;99.90;;;;;;5061218;28;20059;-58
2021/01/02 09:57:33;;;;;;;3.25;1.15;;;3.80;99.90;;;;;;5070410;28;20089;-58
2021/01/02 09:59:58;;;;;;;7.82;1.88;;;3.90;99.90;;;;;;5060078;28;20029;-59
2021/01/02 10:02:24;;;;;;;5.18;1.30;;;3.90;99.90;;;;;;5068743;28;20037;-58
2021/01/02 10:04:51;;;;;;;5.25;1.40;;;3.90;99.90;;;;;;5061750;28;20571;-58
2021/01/02 10:07:17;;;;;;;4.03;1.58;;;3.80;99.90;;;;;;5063351;28;20415;-59
2021/01/02 10:09:46;;;;;;;3.50;1.38;;;3.90;99.90;;;;;;5054650;28;20032;-60
2021/01/02 10:12:14;;;;;;;3.33;1.10;;;3.90;99.90;;;;;;5058138;28;20094;-60
2021/01/02 10:14:40;;;;;;;5.60;1.60;;;3.90;99.90;;;;;;5058773;28;20237;-58
2021/01/02 10:17:06;;;;;;;2.22;1.23;;;3.90;99.90;;;;;;5063492;28;20443;-58
2021/01/02 10:19:32;;;;;;;4.07;1.15;;;3.90;99.90;;;;;;5056986;28;20033;-59
2021/01/02 10:21:59;;;;;;;7.20;1.95;;;3.90;99.90;;;;;;5061358;28;20032;-60
2021/01/02 10:24:26;;;;;;;5.53;1.52;;;4.00;99.90;;;;;;5058347;28;20103;-59
2021/01/02 10:26:51;;;;;;;4.18;1.33;;;4.00;99.90;;;;;;5068828;28;20033;-60
2021/01/02 10:29:17;;;;;;;8.18;1.83;;;4.00;99.90;;;;;;5067966;28;20039;-60
2021/01/02 10:31:44;;;;;;;6.22;1.10;;;4.00;99.90;;;;;;5069713;28;20029;-60
2021/01/02 10:34:10;;;;;;;3.85;1.30;;;4.00;99.90;;;;;;5060987;28;20021;-58
2021/01/02 10:36:36;;;;;;;3.10;1.30;;;4.10;99.90;;;;;;5064761;28;20028;-58
2021/01/02 10:39:02;;;;;;;6.47;1.50;;;4.10;99.90;;;;;;5055832;28;20020;-61
2021/01/02 10:41:28;;;;;;;4.00;1.00;;;4.00;99.90;;;;;;5056388;28;20033;-59
2021/01/02 10:43:54;;;;;;;4.25;1.98;;;4.00;99.90;;;;;;5059412;28;20021;-60
2021/01/02 10:46:20;;;;;;;6.38;1.58;;;4.00;99.90;;;;;;5060928;28;20040;-59
2021/01/02 10:48:45;;;;;;;3.63;1.83;;;3.90;99.90;;;;;;5056859;28;20032;-59
2021/01/02 10:51:20;;;;;;;4.35;1.20;;;4.00;99.90;;;;;;5069463;28;20135;-59
2021/01/02 10:53:45;;;;;;;6.30;1.10;;;4.10;99.90;;;;;;5062774;28;20048;-59
2021/01/02 10:56:14;;;;;;;5.28;1.70;;;4.00;99.90;;;;;;5067986;28;20045;-59
2021/01/02 10:58:40;;;;;;;5.80;1.60;;;4.10;99.90;;;;;;5067232;28;20017;-59
2021/01/02 11:01:06;;;;;;;4.47;1.45;;;4.10;99.90;;;;;;5057593;28;20068;-60
2021/01/02 11:03:36;;;;;;;5.97;1.50;;;4.10;99.90;;;;;;5064247;28;20041;-58
2021/01/02 11:06:12;;;;;;;4.25;1.60;;;4.20;99.90;;;;;;5057379;28;20066;-60
2021/01/02 11:08:38;;;;;;;3.30;1.55;;;4.20;99.90;;;;;;5060116;28;20028;-59
2021/01/02 11:11:05;;;;;;;5.45;1.58;;;4.20;99.90;;;;;;5056212;28;20098;-59
2021/01/02 11:13:31;;;;;;;3.42;1.40;;;4.20;99.90;;;;;;5062432;28;20036;-59
2021/01/02 11:15:57;;;;;;;7.03;1.70;;;4.20;99.90;;;;;;5058333;28;20407;-60
2021/01/02 11:18:23;;;;;;;3.60;1.27;;;4.10;99.90;;;;;;5053153;28;20017;-60
2021/01/02 11:20:49;;;;;;;7.28;2.00;;;4.20;99.90;;;;;;5063718;28;20465;-59
2021/01/02 11:23:16;;;;;;;5.63;1.65;;;4.20;99.90;;;;;;5059557;28;20051;-59
2021/01/02 11:25:41;;;;;;;7.20;1.50;;;4.20;99.90;;;;;;5065197;28;20033;-59
2021/01/02 11:28:07;;;;;;;6.82;1.95;;;4.10;99.90;;;;;;5065807;28;20040;-59
2021/01/02 11:30:33;;;;;;;4.55;1.70;;;4.10;99.90;;;;;;5055261;28;20032;-59
2021/01/02 11:32:59;;;;;;;22.58;8.90;;;4.20;99.90;;;;;;5056880;28;20021;-60
2021/01/02 11:35:25;;;;;;;7.47;2.28;;;4.20;99.90;;;;;;5056736;28;20076;-60
2021/01/02 11:37:51;;;;;;;8.98;1.83;;;4.20;99.90;;;;;;5066192;28;20118;-59
2021/01/02 11:40:17;;;;;;;6.32;1.75;;;4.20;99.90;;;;;;5058163;28;20091;-60
2021/01/02 11:42:43;;;;;;;2.92;1.38;;;4.30;99.90;;;;;;5060636;28;20052;-59
2021/01/02 11:45:18;;;;;;;5.40;1.70;;;4.30;99.90;;;;;;5059258;28;20037;-59
2021/01/02 11:47:44;;;;;;;;;;;4.40;99.90;;;;;;5058943;28;20033;-59
2021/01/02 11:50:11;;;;;;;6.53;1.90;;;4.40;99.90;;;;;;5057839;28;19912;-59
2021/01/02 11:52:37;;;;;;;7.50;2.60;;;4.50;99.90;;;;;;5055306;28;20116;-60
2021/01/02 11:55:05;;;;;;;6.18;2.05;;;4.60;99.90;;;;;;5051600;28;20115;-60
2021/01/02 11:57:31;;;;;;;5.13;1.70;;;4.60;99.90;;;;;;5058226;28;20064;-58
2021/01/02 11:59:57;;;;;;;3.90;1.58;;;4.60;99.90;;;;;;5052476;28;20071;-60
2021/01/02 12:02:22;;;;;;;3.35;1.60;;;4.60;99.90;;;;;;5064132;28;20025;-59
2021/01/02 12:04:48;;;;;;;7.25;1.80;;;4.60;99.90;;;;;;5062862;28;20020;-59
2021/01/02 12:07:14;;;;;;;4.78;1.73;;;4.60;99.90;;;;;;5061576;28;20029;-58
2021/01/02 12:09:40;;;;;;;6.70;1.85;;;4.60;99.90;;;;;;5063823;28;20028;-60
2021/01/02 12:12:06;;;;;;;3.15;1.45;;;4.50;99.90;;;;;;5070167;28;20040;-59
2021/01/02 12:14:33;;;;;;;4.72;1.77;;;4.50;99.90;;;;;;5057022;28;20020;-60
2021/01/02 12:17:01;;;;;;;4.57;1.60;;;4.50;99.90;;;;;;5059775;28;20025;-59
2021/01/02 12:19:29;;;;;;;4.43;1.77;;;4.50;99.90;;;;;;5065332;28;20526;-59
2021/01/02 12:22:00;;;;;;;4.40;1.63;;;4.40;99.90;;;;;;5059099;28;20437;-58
2021/01/02 12:24:26;;;;;;;4.43;1.77;;;4.40;99.90;;;;;;5066762;28;20111;-58
2021/01/02 12:26:56;;;;;;;5.80;2.08;;;4.40;99.90;;;;;;5064016;28;20028;-60
2021/01/02 12:29:24;;;;;;;3.10;1.80;;;4.30;99.90;;;;;;5056043;28;20032;-60
2021/01/02 12:31:54;;;;;;;5.32;2.15;;;4.30;99.90;;;;;;5050788;28;20028;-59
2021/01/02 12:34:24;;;;;;;4.57;1.90;;;4.30;99.90;;;;;;5051463;28;20053;-58
2021/01/02 12:36:50;;;;;;;4.07;1.80;;;4.30;99.90;;;;;;5061947;28;20025;-59
2021/01/02 12:39:20;;;;;;;8.40;3.30;;;4.40;99.90;;;;;;5064408;28;20518;-59
2021/01/02 12:41:45;;;;;;;7.05;2.10;;;4.40;99.90;;;;;;5071431;28;20458;-60
2021/01/02 12:44:12;;;;;;;7.75;2.28;;;4.40;99.90;;;;;;5063601;28;20053;-60
2021/01/02 12:46:40;;;;;;;5.13;1.90;;;4.40;99.90;;;;;;5052789;28;20040;-59
2021/01/02 12:49:07;;;;;;;6.82;2.20;;;4.40;99.90;;;;;;5051060;28;20515;-58
2021/01/02 12:51:33;;;;;;;4.95;2.10;;;4.40;99.90;;;;;;5054552;28;20129;-60
2021/01/02 12:53:58;;;;;;;8.27;3.33;;;4.40;99.90;;;;;;5051705;28;20028;-59
2021/01/02 12:56:24;;;;;;;4.80;1.92;;;4.60;99.90;;;;;;5054491;28;20029;-60
2021/01/02 12:58:50;;;;;;;5.60;2.00;;;4.60;99.90;;;;;;5054294;28;20367;-58
2021/01/02 13:01:16;;;;;;;4.78;1.65;;;4.60;99.90;;;;;;5058063;28;20459;-58
2021/01/02 13:03:42;;;;;;;3.53;1.60;;;4.60;99.90;;;;;;5062249;28;20035;-59
2021/01/02 13:06:12;;;;;;;10.73;3.63;;;4.60;99.90;;;;;;5053670;28;20386;-60
2021/01/02 13:08:38;;;;;;;7.10;2.08;;;4.60;99.90;;;;;;5054737;28;20032;-58